sensor_id;sensor_type;location;lat;lon;timestamp;temperature;humidity
14252;DHT22;7210;51.502;10.722;2024-01-06T00:00:26;3.40;79.80
14252;DHT22;7210;51.502;10.722;2024-01-06T00:02:53;3.40;84.60
14252;DHT22;7210;51.502;10.722;2024-01-06T00:05:20;3.50;82.80
14252;DHT22;7210;51.502;10.722;2024-01-06T00:07:47;3.50;91.10
14252;DHT22;7210;51.502;10.722;2024-01-06T00:10:16;3.50;99.90
14252;DHT22;7210;51.502;10.722;2024-01-06T00:12:44;3.50;99.90
14252;DHT22;7210;51.502;10.722;2024-01-06T00:15:11;3.50;99.90
14252;DHT22;7210;51.502;10.722;2024-01-06T00:17:38;3.50;99.90
14252;DHT22;7210;51.502;10.722;2024-01-06T00:20:07;3.50;99.90
14252;DHT22;7210;51.502;10.722;2024-01-06T00:22:34;3.50;99.90
14252;DHT22;7210;51.502;10.722;2024-01-06T00:25:01;3.50;99.90
14252;DHT22;7210;51.502;10.722;2024-01-06T00:27:31;3.50;99.90
14252;DHT22;7210;51.502;10.722;2024-01-06T00:29:58;3.60;99.90
14252;DHT22;7210;51.502;10.722;2024-01-06T00:32:25;3.50;99.90
14252;DHT22;7210;51.502;10.722;2024-01-06T00:34:52;3.60;99.90
14252;DHT22;7210;51.502;10.722;2024-01-06T00:37:19;3.60;99.90
14252;DHT22;7210;51.502;10.722;2024-01-06T00:39:47;3.60;99.90
14252;DHT22;7210;51.502;10.722;2024-01-06T00:42:14;3.70;99.90
14252;DHT22;7210;51.502;10.722;2024-01-06T00:44:49;3.80;99.90
14252;DHT22;7210;51.502;10.722;2024-01-06T00:47:16;3.80;99.90
14252;DHT22;7210;51.502;10.722;2024-01-06T00:49:43;3.80;99.90
14252;DHT22;7210;51.502;10.722;2024-01-06T00:52:10;3.80;99.90
14252;DHT22;7210;51.502;10.722;2024-01-06T00:54:38;3.90;99.90
14252;DHT22;7210;51.502;10.722;2024-01-06T00:57:05;3.90;99.90
14252;DHT22;7210;51.502;10.722;2024-01-06T00:59:32;3.90;99.90
14252;DHT22;7210;51.502;10.722;2024-01-06T01:02:00;3.90;99.90
14252;DHT22;7210;51.502;10.722;2024-01-06T01:04:27;3.90;99.90
14252;DHT22;7210;51.502;10.722;2024-01-06T01:06:54;4.00;99.90
14252;DHT22;7210;51.502;10.722;2024-01-06T01:09:20;3.90;99.90
14252;DHT22;7210;51.502;10.722;2024-01-06T01:11:47;3.90;99.90
14252;DHT22;7210;51.502;10.722;2024-01-06T01:14:14;3.90;99.90
14252;DHT22;7210;51.502;10.722;2024-01-06T01:16:44;3.90;99.90
14252;DHT22;7210;51.502;10.722;2024-01-06T01:19:13;3.90;99.90
14252;DHT22;7210;51.502;10.722;2024-01-06T01:21:40;3.90;99.90
14252;DHT22;7210;51.502;10.722;2024-01-06T01:24:07;3.90;99.90
14252;DHT22;7210;51.502;10.722;2024-01-06T01:26:34;3.90;99.90
14252;DHT22;7210;51.502;10.722;2024-01-06T01:29:01;4.00;99.90
14252;DHT22;7210;51.502;10.722;2024-01-06T01:31:28;4.00;99.90
14252;DHT22;7210;51.502;10.722;2024-01-06T01:33:56;4.00;99.90
14252;DHT22;7210;51.502;10.722;2024-01-06T01:36:24;3.90;99.90
14252;DHT22;7210;51.502;10.722;2024-01-06T01:38:51;3.90;99.90
14252;DHT22;7210;51.502;10.722;2024-01-06T01:41:18;3.90;99.90
14252;DHT22;7210;51.502;10.722;2024-01-06T01:43:45;3.90;99.90
14252;DHT22;7210;51.502;10.722;2024-01-06T01:46:13;3.90;99.90
14252;DHT22;7210;51.502;10.722;2024-01-06T01:48:40;3.90;99.90
14252;DHT22;7210;51.502;10.722;2024-01-06T01:51:08;3.90;99.90
14252;DHT22;7210;51.502;10.722;2024-01-06T01:53:43;3.90;99.90
14252;DHT22;7210;51.502;10.722;2024-01-06T01:56:10;3.90;99.90
14252;DHT22;7210;51.502;10.722;2024-01-06T01:58:38;3.90;99.90
14252;DHT22;7210;51.502;10.722;2024-01-06T02:01:06;3.90;99.90
14252;DHT22;7210;51.502;10.722;2024-01-06T02:03:35;3.90;99.90
14252;DHT22;7210;51.502;10.722;2024-01-06T02:06:02;3.90;99.90
14252;DHT22;7210;51.502;10.722;2024-01-06T02:08:30;3.90;99.90
14252;DHT22;7210;51.502;10.722;2024-01-06T02:10:58;3.90;99.90
14252;DHT22;7210;51.502;10.722;2024-01-06T02:13:32;3.90;99.90
14252;DHT22;7210;51.502;10.722;2024-01-06T02:16:01;3.90;99.90
14252;DHT22;7210;51.502;10.722;2024-01-06T02:18:35;3.90;99.90
14252;DHT22;7210;51.502;10.722;2024-01-06T02:21:03;3.90;99.90
14252;DHT22;7210;51.502;10.722;2024-01-06T02:23:33;4.00;99.90
14252;DHT22;7210;51.502;10.722;2024-01-06T02:26:01;4.00;99.90
14252;DHT22;7210;51.502;10.722;2024-01-06T02:28:29;4.00;99.90
14252;DHT22;7210;51.502;10.722;2024-01-06T02:30:56;4.00;99.90
14252;DHT22;7210;51.502;10.722;2024-01-06T02:33:23;4.00;99.90
14252;DHT22;7210;51.502;10.722;2024-01-06T02:35:50;3.90;99.90
14252;DHT22;7210;51.502;10.722;2024-01-06T02:38:23;3.90;99.90
14252;DHT22;7210;51.502;10.722;2024-01-06T02:40:53;3.90;99.90
14252;DHT22;7210;51.502;10.722;2024-01-06T02:43:20;4.00;99.90
14252;DHT22;7210;51.502;10.722;2024-01-06T02:45:47;4.00;99.90
14252;DHT22;7210;51.502;10.722;2024-01-06T02:48:15;4.00;99.90
14252;DHT22;7210;51.502;10.722;2024-01-06T02:50:42;4.00;99.90
14252;DHT22;7210;51.502;10.722;2024-01-06T02:53:10;4.00;99.90
14252;DHT22;7210;51.502;10.722;2024-01-06T02:55:38;4.00;99.90
14252;DHT22;7210;51.502;10.722;2024-01-06T02:58:06;4.00;99.90
14252;DHT22;7210;51.502;10.722;2024-01-06T03:00:33;4.00;99.90
14252;DHT22;7210;51.502;10.722;2024-01-06T03:03:00;4.00;99.90
14252;DHT22;7210;51.502;10.722;2024-01-06T03:05:28;4.00;99.90
14252;DHT22;7210;51.502;10.722;2024-01-06T03:07:55;4.00;99.90
14252;DHT22;7210;51.502;10.722;2024-01-06T03:10:22;4.00;99.90
14252;DHT22;7210;51.502;10.722;2024-01-06T03:12:49;4.00;99.90
14252;DHT22;7210;51.502;10.722;2024-01-06T03:15:17;4.00;99.90
14252;DHT22;7210;51.502;10.722;2024-01-06T03:17:45;4.00;99.90
14252;DHT22;7210;51.502;10.722;2024-01-06T03:20:12;4.00;99.90
14252;DHT22;7210;51.502;10.722;2024-01-06T03:22:39;4.00;99.90
14252;DHT22;7210;51.502;10.722;2024-01-06T03:25:06;4.00;99.90
14252;DHT22;7210;51.502;10.722;2024-01-06T03:27:34;4.00;99.90
14252;DHT22;7210;51.502;10.722;2024-01-06T03:30:01;4.00;99.90
14252;DHT22;7210;51.502;10.722;2024-01-06T03:32:30;4.00;99.90
14252;DHT22;7210;51.502;10.722;2024-01-06T03:34:57;4.00;99.90
14252;DHT22;7210;51.502;10.722;2024-01-06T03:37:29;4.00;99.90
14252;DHT22;7210;51.502;10.722;2024-01-06T03:39:56;4.00;99.90
14252;DHT22;7210;51.502;10.722;2024-01-06T03:42:23;4.00;99.90
14252;DHT22;7210;51.502;10.722;2024-01-06T03:44:50;4.00;99.90
14252;DHT22;7210;51.502;10.722;2024-01-06T03:47:18;4.00;99.90
14252;DHT22;7210;51.502;10.722;2024-01-06T03:49:47;4.00;99.90
14252;DHT22;7210;51.502;10.722;2024-01-06T03:52:14;4.00;99.90
14252;DHT22;7210;51.502;10.722;2024-01-06T03:54:41;4.00;99.90
14252;DHT22;7210;51.502;10.722;2024-01-06T03:57:11;4.00;99.90
14252;DHT22;7210;51.502;10.722;2024-01-06T03:59:38;4.00;99.90
14252;DHT22;7210;51.502;10.722;2024-01-06T04:02:05;4.00;99.90
14252;DHT22;7210;51.502;10.722;2024-01-06T04:04:32;3.90;99.90
14252;DHT22;7210;51.502;10.722;2024-01-06T04:07:01;3.90;99.90
14252;DHT22;7210;51.502;10.722;2024-01-06T04:09:28;3.90;99.90
14252;DHT22;7210;51.502;10.722;2024-01-06T04:11:55;3.90;99.90
14252;DHT22;7210;51.502;10.722;2024-01-06T04:14:22;4.00;99.90
14252;DHT22;7210;51.502;10.722;2024-01-06T04:16:49;4.00;99.90
14252;DHT22;7210;51.502;10.722;2024-01-06T04:19:23;4.00;99.90
14252;DHT22;7210;51.502;10.722;2024-01-06T04:21:50;4.00;99.90
14252;DHT22;7210;51.502;10.722;2024-01-06T04:24:19;4.00;99.90
14252;DHT22;7210;51.502;10.722;2024-01-06T04:26:48;4.00;99.90
14252;DHT22;7210;51.502;10.722;2024-01-06T04:29:16;4.00;99.90
14252;DHT22;7210;51.502;10.722;2024-01-06T04:31:43;4.20;99.90
14252;DHT22;7210;51.502;10.722;2024-01-06T04:34:10;4.30;99.90
14252;DHT22;7210;51.502;10.722;2024-01-06T04:36:37;4.20;99.90
14252;DHT22;7210;51.502;10.722;2024-01-06T04:39:05;4.10;99.90
14252;DHT22;7210;51.502;10.722;2024-01-06T04:41:33;4.00;99.90
14252;DHT22;7210;51.502;10.722;2024-01-06T04:44:01;3.90;99.90
14252;DHT22;7210;51.502;10.722;2024-01-06T04:46:28;3.90;99.90
14252;DHT22;7210;51.502;10.722;2024-01-06T04:48:56;3.80;99.90
14252;DHT22;7210;51.502;10.722;2024-01-06T04:51:23;3.70;99.90
14252;DHT22;7210;51.502;10.722;2024-01-06T04:53:50;3.70;99.90
14252;DHT22;7210;51.502;10.722;2024-01-06T04:56:17;3.70;99.90
14252;DHT22;7210;51.502;10.722;2024-01-06T04:58:48;3.70;99.90
14252;DHT22;7210;51.502;10.722;2024-01-06T05:01:17;3.70;99.90
14252;DHT22;7210;51.502;10.722;2024-01-06T05:03:44;3.70;99.90
14252;DHT22;7210;51.502;10.722;2024-01-06T05:06:12;3.70;99.90
14252;DHT22;7210;51.502;10.722;2024-01-06T05:08:39;3.60;99.90
14252;DHT22;7210;51.502;10.722;2024-01-06T05:11:10;3.60;99.90
14252;DHT22;7210;51.502;10.722;2024-01-06T05:13:38;3.60;99.90
14252;DHT22;7210;51.502;10.722;2024-01-06T05:16:07;3.60;99.90
14252;DHT22;7210;51.502;10.722;2024-01-06T05:18:35;3.60;97.20
14252;DHT22;7210;51.502;10.722;2024-01-06T05:21:03;3.50;89.00
14252;DHT22;7210;51.502;10.722;2024-01-06T05:23:31;3.50;81.40
14252;DHT22;7210;51.502;10.722;2024-01-06T05:25:58;3.50;67.80
14252;DHT22;7210;51.502;10.722;2024-01-06T05:28:25;3.60;57.70
14252;DHT22;7210;51.502;10.722;2024-01-06T05:30:53;3.60;53.00
14252;DHT22;7210;51.502;10.722;2024-01-06T05:33:22;3.60;50.00
14252;DHT22;7210;51.502;10.722;2024-01-06T05:35:49;3.60;48.40
14252;DHT22;7210;51.502;10.722;2024-01-06T05:38:16;3.60;50.60
14252;DHT22;7210;51.502;10.722;2024-01-06T05:40:43;3.60;47.20
14252;DHT22;7210;51.502;10.722;2024-01-06T05:43:10;3.70;52.80
14252;DHT22;7210;51.502;10.722;2024-01-06T05:45:38;3.70;54.00
14252;DHT22;7210;51.502;10.722;2024-01-06T05:48:09;3.70;53.50
14252;DHT22;7210;51.502;10.722;2024-01-06T05:50:37;3.70;57.80
14252;DHT22;7210;51.502;10.722;2024-01-06T05:53:06;3.60;56.70
14252;DHT22;7210;51.502;10.722;2024-01-06T05:55:34;3.60;54.50
14252;DHT22;7210;51.502;10.722;2024-01-06T05:58:02;3.50;49.90
14252;DHT22;7210;51.502;10.722;2024-01-06T06:00:29;3.50;44.40
14252;DHT22;7210;51.502;10.722;2024-01-06T06:02:57;3.50;37.20
14252;DHT22;7210;51.502;10.722;2024-01-06T06:05:24;3.50;35.00
14252;DHT22;7210;51.502;10.722;2024-01-06T06:07:53;3.40;31.80
14252;DHT22;7210;51.502;10.722;2024-01-06T06:10:20;3.50;27.80
14252;DHT22;7210;51.502;10.722;2024-01-06T06:12:48;3.50;43.90
14252;DHT22;7210;51.502;10.722;2024-01-06T06:15:15;3.40;20.60
14252;DHT22;7210;51.502;10.722;2024-01-06T06:17:42;3.50;18.00
14252;DHT22;7210;51.502;10.722;2024-01-06T06:20:09;3.50;16.90
14252;DHT22;7210;51.502;10.722;2024-01-06T06:22:36;3.50;19.10
14252;DHT22;7210;51.502;10.722;2024-01-06T06:25:06;3.50;17.60
14252;DHT22;7210;51.502;10.722;2024-01-06T06:27:34;3.40;15.80
14252;DHT22;7210;51.502;10.722;2024-01-06T06:30:17;3.40;14.40
14252;DHT22;7210;51.502;10.722;2024-01-06T06:32:44;3.40;11.40
14252;DHT22;7210;51.502;10.722;2024-01-06T06:35:17;3.40;8.10
14252;DHT22;7210;51.502;10.722;2024-01-06T06:37:47;3.40;6.80
14252;DHT22;7210;51.502;10.722;2024-01-06T06:40:19;3.40;7.60
14252;DHT22;7210;51.502;10.722;2024-01-06T06:42:46;3.40;8.20
14252;DHT22;7210;51.502;10.722;2024-01-06T06:45:13;3.30;14.00
14252;DHT22;7210;51.502;10.722;2024-01-06T06:47:40;3.20;13.20
14252;DHT22;7210;51.502;10.722;2024-01-06T06:50:08;3.20;15.30
14252;DHT22;7210;51.502;10.722;2024-01-06T06:52:35;3.10;13.20
14252;DHT22;7210;51.502;10.722;2024-01-06T06:55:03;3.10;8.40
14252;DHT22;7210;51.502;10.722;2024-01-06T06:57:31;3.10;4.60
14252;DHT22;7210;51.502;10.722;2024-01-06T06:59:59;3.00;2.00
14252;DHT22;7210;51.502;10.722;2024-01-06T07:02:26;3.00;1.00
14252;DHT22;7210;51.502;10.722;2024-01-06T07:04:53;3.00;1.00
14252;DHT22;7210;51.502;10.722;2024-01-06T07:07:20;3.00;1.00
14252;DHT22;7210;51.502;10.722;2024-01-06T07:09:47;3.10;1.00
14252;DHT22;7210;51.502;10.722;2024-01-06T07:12:14;3.10;1.00
14252;DHT22;7210;51.502;10.722;2024-01-06T07:14:43;3.10;1.00
14252;DHT22;7210;51.502;10.722;2024-01-06T07:17:10;3.10;1.00
14252;DHT22;7210;51.502;10.722;2024-01-06T07:19:38;3.10;1.00
14252;DHT22;7210;51.502;10.722;2024-01-06T07:22:05;3.10;1.00
14252;DHT22;7210;51.502;10.722;2024-01-06T07:24:33;3.10;1.00
14252;DHT22;7210;51.502;10.722;2024-01-06T07:27:00;3.10;1.00
14252;DHT22;7210;51.502;10.722;2024-01-06T07:29:31;3.20;1.00
14252;DHT22;7210;51.502;10.722;2024-01-06T07:32:06;3.30;1.00
14252;DHT22;7210;51.502;10.722;2024-01-06T07:34:35;3.30;1.00
14252;DHT22;7210;51.502;10.722;2024-01-06T07:37:03;3.40;1.00
14252;DHT22;7210;51.502;10.722;2024-01-06T07:39:41;3.40;1.00
14252;DHT22;7210;51.502;10.722;2024-01-06T07:46:15;3.40;1.00
14252;DHT22;7210;51.502;10.722;2024-01-06T07:48:44;3.40;1.00
14252;DHT22;7210;51.502;10.722;2024-01-06T07:51:11;3.40;1.00
14252;DHT22;7210;51.502;10.722;2024-01-06T07:53:39;3.40;1.00
14252;DHT22;7210;51.502;10.722;2024-01-06T07:56:06;3.40;1.00
14252;DHT22;7210;51.502;10.722;2024-01-06T07:58:34;3.50;1.00
14252;DHT22;7210;51.502;10.722;2024-01-06T08:01:01;3.60;1.00
14252;DHT22;7210;51.502;10.722;2024-01-06T08:03:29;3.50;1.00
14252;DHT22;7210;51.502;10.722;2024-01-06T08:05:58;3.50;1.00
14252;DHT22;7210;51.502;10.722;2024-01-06T08:08:26;3.50;1.00
14252;DHT22;7210;51.502;10.722;2024-01-06T08:10:53;3.60;1.00
14252;DHT22;7210;51.502;10.722;2024-01-06T08:13:20;3.50;4.80
14252;DHT22;7210;51.502;10.722;2024-01-06T08:15:47;3.60;7.30
14252;DHT22;7210;51.502;10.722;2024-01-06T08:18:15;3.60;12.30
14252;DHT22;7210;51.502;10.722;2024-01-06T08:20:42;3.70;18.40
14252;DHT22;7210;51.502;10.722;2024-01-06T08:23:10;3.70;26.50
14252;DHT22;7210;51.502;10.722;2024-01-06T08:25:37;3.60;24.90
14252;DHT22;7210;51.502;10.722;2024-01-06T08:28:11;3.70;22.30
14252;DHT22;7210;51.502;10.722;2024-01-06T08:30:40;3.70;24.30
14252;DHT22;7210;51.502;10.722;2024-01-06T08:33:08;3.80;33.40
14252;DHT22;7210;51.502;10.722;2024-01-06T08:35:35;3.80;34.90
14252;DHT22;7210;51.502;10.722;2024-01-06T08:38:05;3.80;36.30
14252;DHT22;7210;51.502;10.722;2024-01-06T08:40:34;4.00;1.10
14252;DHT22;7210;51.502;10.722;2024-01-06T08:43:02;4.10;23.40
14252;DHT22;7210;51.502;10.722;2024-01-06T08:45:35;4.10;70.80
14252;DHT22;7210;51.502;10.722;2024-01-06T08:48:04;4.00;96.10
14252;DHT22;7210;51.502;10.722;2024-01-06T08:50:35;4.00;97.40
14252;DHT22;7210;51.502;10.722;2024-01-06T08:53:03;3.90;99.90
14252;DHT22;7210;51.502;10.722;2024-01-06T08:55:31;3.90;99.90
14252;DHT22;7210;51.502;10.722;2024-01-06T08:57:59;3.90;99.90
14252;DHT22;7210;51.502;10.722;2024-01-06T09:00:26;4.00;93.50
14252;DHT22;7210;51.502;10.722;2024-01-06T09:02:53;4.10;99.90
14252;DHT22;7210;51.502;10.722;2024-01-06T09:05:20;4.00;99.90
14252;DHT22;7210;51.502;10.722;2024-01-06T09:07:47;4.00;99.90
14252;DHT22;7210;51.502;10.722;2024-01-06T09:10:16;3.90;99.90
14252;DHT22;7210;51.502;10.722;2024-01-06T09:12:43;3.90;99.90
14252;DHT22;7210;51.502;10.722;2024-01-06T09:15:13;3.90;99.90
14252;DHT22;7210;51.502;10.722;2024-01-06T09:17:40;3.90;99.90
14252;DHT22;7210;51.502;10.722;2024-01-06T09:20:08;3.90;99.90
14252;DHT22;7210;51.502;10.722;2024-01-06T09:22:35;3.90;99.90
14252;DHT22;7210;51.502;10.722;2024-01-06T09:25:03;3.90;99.90
14252;DHT22;7210;51.502;10.722;2024-01-06T09:27:30;3.90;99.90
14252;DHT22;7210;51.502;10.722;2024-01-06T09:29:58;3.90;99.90
14252;DHT22;7210;51.502;10.722;2024-01-06T09:32:27;3.90;99.90
14252;DHT22;7210;51.502;10.722;2024-01-06T09:34:54;4.00;99.90
14252;DHT22;7210;51.502;10.722;2024-01-06T09:37:21;4.90;99.90
14252;DHT22;7210;51.502;10.722;2024-01-06T09:39:53;4.80;99.90
14252;DHT22;7210;51.502;10.722;2024-01-06T09:42:21;4.70;99.90
14252;DHT22;7210;51.502;10.722;2024-01-06T09:44:48;4.50;99.90
14252;DHT22;7210;51.502;10.722;2024-01-06T09:47:18;4.40;99.90
14252;DHT22;7210;51.502;10.722;2024-01-06T09:49:49;4.30;99.90
14252;DHT22;7210;51.502;10.722;2024-01-06T09:52:21;4.30;99.90
14252;DHT22;7210;51.502;10.722;2024-01-06T09:54:52;4.20;99.90
14252;DHT22;7210;51.502;10.722;2024-01-06T09:57:20;4.30;99.90
14252;DHT22;7210;51.502;10.722;2024-01-06T09:59:54;4.30;99.90
14252;DHT22;7210;51.502;10.722;2024-01-06T10:02:22;4.30;99.90
14252;DHT22;7210;51.502;10.722;2024-01-06T10:04:52;4.40;99.90
14252;DHT22;7210;51.502;10.722;2024-01-06T10:07:25;4.40;99.90
14252;DHT22;7210;51.502;10.722;2024-01-06T10:09:59;4.40;99.90
14252;DHT22;7210;51.502;10.722;2024-01-06T10:12:27;4.40;99.90
14252;DHT22;7210;51.502;10.722;2024-01-06T10:14:54;4.40;99.90
14252;DHT22;7210;51.502;10.722;2024-01-06T10:17:22;4.40;99.90
14252;DHT22;7210;51.502;10.722;2024-01-06T10:19:49;4.30;99.90
14252;DHT22;7210;51.502;10.722;2024-01-06T10:22:19;4.40;99.90
14252;DHT22;7210;51.502;10.722;2024-01-06T10:24:46;4.50;99.90
14252;DHT22;7210;51.502;10.722;2024-01-06T10:27:13;4.50;99.90
14252;DHT22;7210;51.502;10.722;2024-01-06T10:29:41;4.50;99.90
14252;DHT22;7210;51.502;10.722;2024-01-06T10:32:08;4.50;99.90
14252;DHT22;7210;51.502;10.722;2024-01-06T10:34:36;4.60;99.90
14252;DHT22;7210;51.502;10.722;2024-01-06T10:37:05;4.60;99.90
14252;DHT22;7210;51.502;10.722;2024-01-06T10:39:34;4.60;99.90
14252;DHT22;7210;51.502;10.722;2024-01-06T10:42:03;4.60;99.90
14252;DHT22;7210;51.502;10.722;2024-01-06T10:44:36;4.60;99.90
14252;DHT22;7210;51.502;10.722;2024-01-06T10:47:06;4.60;99.90
14252;DHT22;7210;51.502;10.722;2024-01-06T10:49:35;4.60;99.90
14252;DHT22;7210;51.502;10.722;2024-01-06T10:52:04;4.60;99.90
14252;DHT22;7210;51.502;10.722;2024-01-06T10:54:35;4.60;99.90
14252;DHT22;7210;51.502;10.722;2024-01-06T10:57:03;4.60;99.90
14252;DHT22;7210;51.502;10.722;2024-01-06T10:59:33;4.60;99.90
14252;DHT22;7210;51.502;10.722;2024-01-06T11:02:05;4.50;99.90
14252;DHT22;7210;51.502;10.722;2024-01-06T11:04:34;4.60;99.90
14252;DHT22;7210;51.502;10.722;2024-01-06T11:07:03;4.60;99.90
14252;DHT22;7210;51.502;10.722;2024-01-06T11:09:37;4.50;99.90
14252;DHT22;7210;51.502;10.722;2024-01-06T11:12:08;4.60;99.90
14252;DHT22;7210;51.502;10.722;2024-01-06T11:14:37;4.50;99.90
14252;DHT22;7210;51.502;10.722;2024-01-06T11:17:04;4.60;99.90
14252;DHT22;7210;51.502;10.722;2024-01-06T11:19:46;4.60;99.90
14252;DHT22;7210;51.502;10.722;2024-01-06T11:22:25;4.50;99.90
14252;DHT22;7210;51.502;10.722;2024-01-06T11:24:56;4.50;99.90
14252;DHT22;7210;51.502;10.722;2024-01-06T11:27:30;4.50;99.90
14252;DHT22;7210;51.502;10.722;2024-01-06T11:29:59;4.60;99.90
14252;DHT22;7210;51.502;10.722;2024-01-06T11:32:32;4.50;99.90
14252;DHT22;7210;51.502;10.722;2024-01-06T11:35:09;4.60;99.90
14252;DHT22;7210;51.502;10.722;2024-01-06T11:37:52;4.60;99.90
14252;DHT22;7210;51.502;10.722;2024-01-06T11:40:26;4.60;99.90
14252;DHT22;7210;51.502;10.722;2024-01-06T11:43:04;4.60;99.90
14252;DHT22;7210;51.502;10.722;2024-01-06T11:45:32;4.60;99.90
14252;DHT22;7210;51.502;10.722;2024-01-06T11:48:01;4.60;99.90
14252;DHT22;7210;51.502;10.722;2024-01-06T11:50:31;4.70;99.90
14252;DHT22;7210;51.502;10.722;2024-01-06T11:53:07;4.70;99.90
14252;DHT22;7210;51.502;10.722;2024-01-06T11:55:38;4.70;99.90
14252;DHT22;7210;51.502;10.722;2024-01-06T11:58:05;4.70;99.90
14252;DHT22;7210;51.502;10.722;2024-01-06T12:00:34;4.80;99.90
14252;DHT22;7210;51.502;10.722;2024-01-06T12:03:03;4.80;99.90
14252;DHT22;7210;51.502;10.722;2024-01-06T12:05:31;4.80;99.90
14252;DHT22;7210;51.502;10.722;2024-01-06T12:07:59;4.70;99.90
14252;DHT22;7210;51.502;10.722;2024-01-06T12:10:38;4.70;99.90
14252;DHT22;7210;51.502;10.722;2024-01-06T12:13:07;4.70;99.90
14252;DHT22;7210;51.502;10.722;2024-01-06T12:15:36;4.80;99.90
14252;DHT22;7210;51.502;10.722;2024-01-06T12:18:06;4.80;99.90
14252;DHT22;7210;51.502;10.722;2024-01-06T12:20:36;4.90;99.90
14252;DHT22;7210;51.502;10.722;2024-01-06T12:23:04;5.00;99.90
14252;DHT22;7210;51.502;10.722;2024-01-06T12:25:32;5.00;99.90
14252;DHT22;7210;51.502;10.722;2024-01-06T12:28:03;5.10;99.90
14252;DHT22;7210;51.502;10.722;2024-01-06T12:30:33;5.10;99.90
14252;DHT22;7210;51.502;10.722;2024-01-06T12:33:02;5.20;99.90
14252;DHT22;7210;51.502;10.722;2024-01-06T12:35:29;5.20;99.90
14252;DHT22;7210;51.502;10.722;2024-01-06T12:38:02;5.20;99.90
14252;DHT22;7210;51.502;10.722;2024-01-06T12:40:31;5.20;99.90
14252;DHT22;7210;51.502;10.722;2024-01-06T12:42:58;5.20;99.90
14252;DHT22;7210;51.502;10.722;2024-01-06T12:45:27;5.10;99.90
14252;DHT22;7210;51.502;10.722;2024-01-06T12:47:55;5.10;99.90
14252;DHT22;7210;51.502;10.722;2024-01-06T12:50:23;5.10;99.90
14252;DHT22;7210;51.502;10.722;2024-01-06T12:52:50;5.10;99.90
14252;DHT22;7210;51.502;10.722;2024-01-06T12:55:18;5.20;99.90
14252;DHT22;7210;51.502;10.722;2024-01-06T12:57:45;5.20;99.90
14252;DHT22;7210;51.502;10.722;2024-01-06T13:00:14;5.20;99.90
14252;DHT22;7210;51.502;10.722;2024-01-06T13:02:43;5.20;99.90
14252;DHT22;7210;51.502;10.722;2024-01-06T13:05:10;5.30;99.90
14252;DHT22;7210;51.502;10.722;2024-01-06T13:07:38;5.30;99.90
14252;DHT22;7210;51.502;10.722;2024-01-06T13:10:07;5.30;99.90
14252;DHT22;7210;51.502;10.722;2024-01-06T13:12:36;5.30;99.90
14252;DHT22;7210;51.502;10.722;2024-01-06T13:15:04;5.40;99.90
14252;DHT22;7210;51.502;10.722;2024-01-06T13:17:36;5.40;99.90
14252;DHT22;7210;51.502;10.722;2024-01-06T13:20:06;5.40;99.90
14252;DHT22;7210;51.502;10.722;2024-01-06T13:22:34;5.40;99.90
14252;DHT22;7210;51.502;10.722;2024-01-06T13:25:06;5.50;99.90
14252;DHT22;7210;51.502;10.722;2024-01-06T13:27:34;5.50;99.90
14252;DHT22;7210;51.502;10.722;2024-01-06T13:30:03;5.50;99.90
14252;DHT22;7210;51.502;10.722;2024-01-06T13:32:32;5.50;99.90
14252;DHT22;7210;51.502;10.722;2024-01-06T13:34:59;5.50;99.90
14252;DHT22;7210;51.502;10.722;2024-01-06T13:37:31;5.50;99.90
14252;DHT22;7210;51.502;10.722;2024-01-06T13:39:59;5.50;99.90
14252;DHT22;7210;51.502;10.722;2024-01-06T13:42:26;5.50;99.90
14252;DHT22;7210;51.502;10.722;2024-01-06T13:44:53;5.50;99.90
14252;DHT22;7210;51.502;10.722;2024-01-06T13:47:20;5.40;99.90
14252;DHT22;7210;51.502;10.722;2024-01-06T13:49:47;5.40;99.90
14252;DHT22;7210;51.502;10.722;2024-01-06T13:52:14;5.40;99.90
14252;DHT22;7210;51.502;10.722;2024-01-06T13:54:43;5.40;99.90
14252;DHT22;7210;51.502;10.722;2024-01-06T13:57:10;5.40;99.90
14252;DHT22;7210;51.502;10.722;2024-01-06T13:59:37;5.40;99.90
14252;DHT22;7210;51.502;10.722;2024-01-06T14:02:08;5.40;99.90
14252;DHT22;7210;51.502;10.722;2024-01-06T14:04:36;5.40;99.90
14252;DHT22;7210;51.502;10.722;2024-01-06T14:07:03;5.30;99.90
14252;DHT22;7210;51.502;10.722;2024-01-06T14:09:31;5.30;99.90
14252;DHT22;7210;51.502;10.722;2024-01-06T14:12:00;5.30;99.90
14252;DHT22;7210;51.502;10.722;2024-01-06T14:14:31;5.30;99.90
14252;DHT22;7210;51.502;10.722;2024-01-06T14:16:58;5.30;99.90
14252;DHT22;7210;51.502;10.722;2024-01-06T14:19:26;5.30;99.90
14252;DHT22;7210;51.502;10.722;2024-01-06T14:21:53;5.30;99.90
14252;DHT22;7210;51.502;10.722;2024-01-06T14:24:20;5.20;99.90
14252;DHT22;7210;51.502;10.722;2024-01-06T14:26:50;5.30;99.90
14252;DHT22;7210;51.502;10.722;2024-01-06T14:29:20;5.30;99.90
14252;DHT22;7210;51.502;10.722;2024-01-06T14:31:47;5.20;99.90
14252;DHT22;7210;51.502;10.722;2024-01-06T14:34:17;5.20;99.90
14252;DHT22;7210;51.502;10.722;2024-01-06T14:36:47;5.10;99.90
14252;DHT22;7210;51.502;10.722;2024-01-06T14:39:14;5.10;99.90
14252;DHT22;7210;51.502;10.722;2024-01-06T14:41:42;5.10;99.90
14252;DHT22;7210;51.502;10.722;2024-01-06T14:44:09;5.10;99.90
14252;DHT22;7210;51.502;10.722;2024-01-06T14:46:38;5.00;99.90
14252;DHT22;7210;51.502;10.722;2024-01-06T14:49:07;5.00;99.90
14252;DHT22;7210;51.502;10.722;2024-01-06T14:51:34;4.90;99.90
14252;DHT22;7210;51.502;10.722;2024-01-06T14:54:01;4.90;99.90
14252;DHT22;7210;51.502;10.722;2024-01-06T14:56:28;4.80;99.90
14252;DHT22;7210;51.502;10.722;2024-01-06T14:58:56;4.80;99.90
14252;DHT22;7210;51.502;10.722;2024-01-06T15:01:23;4.80;99.90
14252;DHT22;7210;51.502;10.722;2024-01-06T15:04:07;4.90;99.90
14252;DHT22;7210;51.502;10.722;2024-01-06T15:06:53;5.10;99.90
14252;DHT22;7210;51.502;10.722;2024-01-06T15:09:20;5.50;99.90
14252;DHT22;7210;51.502;10.722;2024-01-06T15:11:49;5.40;99.90
14252;DHT22;7210;51.502;10.722;2024-01-06T15:14:18;5.30;99.90
14252;DHT22;7210;51.502;10.722;2024-01-06T15:33:57;5.00;99.90
14252;DHT22;7210;51.502;10.722;2024-01-06T15:36:24;5.00;99.90
14252;DHT22;7210;51.502;10.722;2024-01-06T15:38:53;4.90;99.90
14252;DHT22;7210;51.502;10.722;2024-01-06T15:41:20;4.90;99.90
14252;DHT22;7210;51.502;10.722;2024-01-06T15:43:47;4.90;99.90
14252;DHT22;7210;51.502;10.722;2024-01-06T15:46:14;4.80;99.90
14252;DHT22;7210;51.502;10.722;2024-01-06T15:48:42;4.80;99.90
14252;DHT22;7210;51.502;10.722;2024-01-06T15:51:10;5.00;99.90
14252;DHT22;7210;51.502;10.722;2024-01-06T15:53:37;4.90;99.90
14252;DHT22;7210;51.502;10.722;2024-01-06T15:56:05;4.80;99.90
14252;DHT22;7210;51.502;10.722;2024-01-06T15:58:33;4.60;99.90
14252;DHT22;7210;51.502;10.722;2024-01-06T16:01:00;4.60;99.90
14252;DHT22;7210;51.502;10.722;2024-01-06T16:03:27;4.60;99.90
14252;DHT22;7210;51.502;10.722;2024-01-06T16:05:54;4.60;99.90
14252;DHT22;7210;51.502;10.722;2024-01-06T16:08:21;4.50;99.90
14252;DHT22;7210;51.502;10.722;2024-01-06T16:10:48;4.50;99.90
14252;DHT22;7210;51.502;10.722;2024-01-06T16:13:16;4.50;99.90
14252;DHT22;7210;51.502;10.722;2024-01-06T16:15:45;4.40;99.90